createdAt,value
2019-05-23T00:01:19.288Z,11.10
2019-05-23T00:03:52.298Z,11.20
2019-05-23T00:06:23.861Z,11.20
2019-05-23T00:08:52.926Z,11.30
2019-05-23T00:11:41.059Z,11.30
2019-05-23T00:14:38.550Z,11.20
2019-05-23T00:17:11.783Z,11.10
2019-05-23T00:19:40.922Z,11.00
2019-05-23T00:22:11.518Z,11.00
2019-05-23T00:24:42.906Z,10.80
2019-05-23T00:27:13.531Z,10.70
2019-05-23T00:29:44.275Z,10.70
2019-05-23T00:32:22.678Z,10.70
2019-05-23T00:34:52.764Z,10.70
2019-05-23T00:37:24.067Z,10.70
2019-05-23T00:39:54.504Z,10.60
2019-05-23T00:42:23.027Z,10.60
2019-05-23T00:44:52.273Z,10.50
2019-05-23T00:47:21.216Z,10.50
2019-05-23T00:49:50.307Z,10.50
2019-05-23T00:52:20.073Z,10.40
2019-05-23T00:54:50.031Z,10.40
2019-05-23T00:57:18.853Z,10.30
2019-05-23T00:59:48.994Z,10.20
2019-05-23T01:02:18.201Z,10.30
2019-05-23T01:04:47.505Z,10.20
2019-05-23T01:07:17.048Z,10.10
2019-05-23T01:09:46.588Z,10.20
2019-05-23T01:12:17.308Z,10.20
2019-05-23T01:14:47.114Z,10.10
2019-05-23T01:17:17.536Z,10.10
2019-05-23T01:19:46.953Z,10.10
2019-05-23T01:22:16.851Z,10.10
2019-05-23T01:24:47.311Z,10.00
2019-05-23T01:27:17.202Z,10.00
2019-05-23T01:29:50.155Z,9.90
2019-05-23T01:32:19.850Z,9.90
2019-05-23T01:34:49.324Z,10.10
2019-05-23T01:37:18.848Z,10.10
2019-05-23T01:39:47.926Z,10.10
2019-05-23T01:42:17.520Z,9.90
2019-05-23T01:44:47.650Z,9.90
2019-05-23T01:47:17.400Z,9.80
2019-05-23T01:49:46.967Z,9.80
2019-05-23T01:52:16.540Z,9.80
2019-05-23T01:54:45.060Z,9.70
2019-05-23T01:57:14.364Z,9.50
2019-05-23T01:59:43.150Z,9.50
2019-05-23T02:02:13.288Z,9.50
2019-05-23T02:04:42.667Z,9.40
2019-05-23T02:07:11.563Z,9.30
2019-05-23T02:09:40.864Z,9.40
2019-05-23T02:12:11.100Z,9.40
2019-05-23T02:14:42.556Z,9.40
2019-05-23T02:17:12.952Z,9.40
2019-05-23T02:19:41.876Z,9.40
2019-05-23T02:22:12.584Z,9.50
2019-05-23T02:24:42.442Z,9.50
2019-05-23T02:27:11.932Z,9.50
2019-05-23T02:29:42.881Z,9.50
2019-05-23T02:32:11.831Z,9.50
2019-05-23T02:34:41.660Z,9.20
2019-05-23T02:37:14.981Z,9.10
2019-05-23T02:39:51.230Z,9.10
2019-05-23T02:42:31.567Z,9.00
2019-05-23T02:45:00.789Z,9.00
2019-05-23T02:47:33.599Z,9.00
2019-05-23T02:50:02.480Z,9.00
2019-05-23T02:52:44.142Z,9.00
2019-05-23T02:55:16.017Z,9.00
2019-05-23T02:57:46.920Z,8.90
2019-05-23T03:00:27.206Z,8.90
2019-05-23T03:03:00.488Z,8.90
2019-05-23T03:05:31.516Z,8.90
2019-05-23T03:08:00.876Z,8.70
2019-05-23T03:10:32.832Z,8.70
2019-05-23T03:13:01.929Z,8.80
2019-05-23T03:15:33.661Z,8.80
2019-05-23T03:18:03.701Z,8.80
2019-05-23T03:20:34.387Z,8.70
2019-05-23T03:23:06.059Z,8.60
2019-05-23T03:25:39.642Z,8.60
2019-05-23T03:28:09.701Z,8.50
2019-05-23T03:30:40.045Z,8.50
2019-05-23T03:33:13.077Z,8.50
2019-05-23T03:36:00.297Z,8.50
2019-05-23T03:38:28.721Z,8.50
2019-05-23T03:40:57.191Z,8.50
2019-05-23T03:43:26.971Z,8.40
2019-05-23T03:46:07.649Z,8.40
2019-05-23T03:48:37.812Z,8.40
2019-05-23T03:51:09.028Z,8.40
2019-05-23T03:53:40.048Z,8.30
2019-05-23T03:56:10.263Z,8.30
2019-05-23T03:58:40.820Z,8.30
2019-05-23T04:01:11.356Z,8.40
2019-05-23T04:03:40.676Z,8.30
2019-05-23T04:06:09.827Z,8.20
2019-05-23T04:08:38.343Z,8.10
2019-05-23T04:11:07.439Z,8.20
2019-05-23T04:13:35.982Z,8.30
2019-05-23T04:16:04.561Z,8.40
2019-05-23T04:18:33.534Z,8.40
2019-05-23T04:21:02.075Z,8.30
2019-05-23T04:23:30.562Z,8.30
2019-05-23T04:25:59.658Z,8.40
2019-05-23T04:28:28.821Z,8.50
2019-05-23T04:30:57.822Z,8.60
2019-05-23T04:33:26.861Z,8.70
2019-05-23T04:35:56.633Z,8.70
2019-05-23T04:38:26.343Z,8.70
2019-05-23T04:40:56.078Z,8.60
2019-05-23T04:43:24.827Z,8.60
2019-05-23T04:45:53.393Z,8.60
2019-05-23T04:48:22.020Z,8.50
2019-05-23T04:50:50.888Z,8.50
2019-05-23T04:53:19.665Z,8.60
2019-05-23T04:55:48.550Z,8.70
2019-05-23T04:58:17.086Z,8.70
2019-05-23T05:00:45.944Z,8.50
2019-05-23T05:03:18.363Z,8.50
2019-05-23T05:05:47.190Z,8.60
2019-05-23T05:08:15.813Z,8.40
2019-05-23T05:10:45.072Z,8.30
2019-05-23T05:13:13.868Z,8.40
2019-05-23T05:15:42.586Z,8.40
2019-05-23T05:18:11.447Z,8.30
2019-05-23T05:20:40.766Z,8.40
2019-05-23T05:23:09.192Z,8.60
2019-05-23T05:25:37.895Z,8.90
2019-05-23T05:28:06.865Z,9.20
2019-05-23T05:30:35.425Z,9.40
2019-05-23T05:33:04.897Z,9.70
2019-05-23T05:35:33.421Z,9.90
2019-05-23T05:38:01.899Z,9.90
2019-05-23T05:40:31.163Z,10.00
2019-05-23T05:43:00.074Z,10.30
2019-05-23T05:45:29.262Z,10.50
2019-05-23T05:47:57.782Z,10.70
2019-05-23T05:50:26.293Z,10.90
2019-05-23T05:52:55.209Z,11.10
2019-05-23T05:55:24.095Z,11.20
2019-05-23T05:57:52.541Z,11.40
2019-05-23T06:00:29.098Z,11.60
2019-05-23T06:03:04.954Z,11.70
2019-05-23T06:05:47.031Z,11.90
2019-05-23T06:08:16.777Z,12.00
2019-05-23T06:10:45.802Z,12.20
2019-05-23T06:13:15.194Z,12.30
2019-05-23T06:15:44.590Z,12.40
2019-05-23T06:18:14.112Z,12.50
2019-05-23T06:20:45.066Z,12.70
2019-05-23T06:23:13.633Z,12.80
2019-05-23T06:25:42.072Z,13.00
2019-05-23T06:28:11.660Z,13.10
2019-05-23T06:30:42.162Z,13.20
2019-05-23T06:33:22.461Z,13.30
2019-05-23T06:35:41.262Z,13.40
2019-05-23T06:38:10.933Z,13.60
2019-05-23T06:40:40.142Z,13.60
2019-05-23T06:43:09.585Z,13.70
2019-05-23T06:45:40.495Z,13.80
2019-05-23T06:48:09.125Z,13.90
2019-05-23T06:50:37.643Z,14.00
2019-05-23T06:53:07.299Z,14.00
2019-05-23T06:55:36.183Z,14.10
2019-05-23T06:58:05.685Z,14.10
2019-05-23T07:00:34.640Z,14.20
2019-05-23T07:03:03.217Z,14.20
2019-05-23T07:05:34.763Z,14.30
2019-05-23T07:08:04.548Z,14.40
2019-05-23T07:10:33.546Z,14.40
2019-05-23T07:13:02.693Z,14.50
2019-05-23T07:15:31.622Z,14.60
2019-05-23T07:18:01.795Z,14.70
2019-05-23T07:20:31.164Z,14.80
2019-05-23T07:22:59.926Z,14.80
2019-05-23T07:25:28.765Z,15.00
2019-05-23T07:27:57.762Z,15.00
2019-05-23T07:30:27.156Z,15.10
2019-05-23T07:32:55.990Z,15.20
2019-05-23T07:35:24.529Z,15.30
2019-05-23T07:37:53.053Z,15.30
2019-05-23T07:40:23.526Z,15.40
2019-05-23T07:42:52.532Z,15.50
2019-05-23T07:45:22.777Z,15.50
2019-05-23T07:47:51.491Z,15.60
2019-05-23T07:50:20.305Z,15.50
2019-05-23T07:52:49.171Z,15.60
2019-05-23T07:55:19.532Z,15.60
2019-05-23T07:57:48.266Z,15.50
2019-05-23T08:00:25.301Z,15.50
2019-05-23T08:02:56.433Z,15.60
2019-05-23T08:05:25.198Z,15.80
2019-05-23T08:07:54.208Z,15.90
2019-05-23T08:10:33.129Z,15.90
2019-05-23T08:12:53.206Z,15.80
2019-05-23T08:15:22.182Z,15.90
2019-05-23T08:17:51.584Z,16.10
2019-05-23T08:20:20.366Z,16.20
2019-05-23T08:22:48.810Z,16.40
2019-05-23T08:25:17.478Z,16.50
2019-05-23T08:27:46.174Z,16.60
2019-05-23T08:30:16.512Z,16.60
2019-05-23T08:32:45.884Z,16.70
2019-05-23T08:35:17.816Z,16.80
2019-05-23T08:37:46.188Z,16.80
2019-05-23T08:40:19.102Z,16.70
2019-05-23T08:42:48.358Z,16.80
2019-05-23T08:45:18.922Z,16.80
2019-05-23T08:47:47.443Z,16.90
2019-05-23T08:50:18.763Z,17.00
2019-05-23T08:52:47.409Z,17.00
2019-05-23T08:55:23.882Z,17.10
2019-05-23T08:57:56.890Z,17.10
2019-05-23T09:00:27.505Z,17.10
2019-05-23T09:02:58.828Z,17.20
2019-05-23T09:05:32.530Z,17.30
2019-05-23T09:08:01.958Z,17.50
2019-05-23T09:10:31.367Z,17.50
2019-05-23T09:12:59.997Z,17.50
2019-05-23T09:15:28.600Z,17.60
2019-05-23T09:17:57.107Z,17.70
2019-05-23T09:20:26.056Z,17.70
2019-05-23T09:22:54.945Z,17.60
2019-05-23T09:25:23.710Z,17.50
2019-05-23T09:27:53.484Z,17.60
2019-05-23T09:30:23.180Z,17.60
2019-05-23T09:32:51.903Z,17.70
2019-05-23T09:35:22.311Z,17.10
2019-05-23T09:37:51.110Z,17.00
2019-05-23T09:40:19.910Z,17.00
2019-05-23T09:42:49.007Z,17.00
2019-05-23T09:45:18.294Z,17.00
2019-05-23T09:47:51.026Z,16.90
2019-05-23T09:50:19.837Z,17.10
2019-05-23T09:52:48.294Z,17.10
2019-05-23T09:55:17.383Z,17.40
2019-05-23T09:57:45.918Z,17.70
2019-05-23T10:00:17.794Z,18.00
2019-05-23T10:02:46.254Z,18.00
2019-05-23T10:05:15.550Z,18.10
2019-05-23T10:07:44.666Z,18.30
2019-05-23T10:10:16.991Z,18.30
2019-05-23T10:12:45.754Z,18.30
2019-05-23T10:15:26.259Z,18.10
2019-05-23T10:17:55.303Z,18.10
2019-05-23T10:20:27.375Z,18.10
2019-05-23T10:22:56.256Z,18.10
2019-05-23T10:25:24.789Z,18.00
2019-05-23T10:27:55.753Z,18.10
2019-05-23T10:30:24.044Z,18.30
2019-05-23T10:32:52.833Z,18.40
2019-05-23T10:35:21.321Z,18.40
2019-05-23T10:37:50.204Z,18.40
2019-05-23T10:40:20.017Z,18.50
2019-05-23T10:42:49.003Z,18.50
2019-05-23T10:45:17.770Z,18.30
2019-05-23T10:47:46.290Z,18.40
2019-05-23T10:50:15.396Z,18.60
2019-05-23T10:52:43.860Z,18.80
2019-05-23T10:55:12.844Z,18.90
2019-05-23T10:57:41.641Z,18.70
2019-05-23T11:00:13.301Z,18.80
2019-05-23T11:02:43.661Z,18.80
2019-05-23T11:05:14.102Z,18.90
2019-05-23T11:07:44.162Z,19.00
2019-05-23T11:10:12.962Z,19.10
2019-05-23T11:12:42.039Z,19.10
2019-05-23T11:15:11.436Z,19.10
2019-05-23T11:17:40.227Z,19.10
2019-05-23T11:20:11.175Z,18.90
2019-05-23T11:22:40.048Z,18.80
2019-05-23T11:25:10.376Z,18.80
2019-05-23T11:27:39.241Z,18.90
2019-05-23T11:30:13.599Z,18.60
2019-05-23T11:32:42.383Z,18.80
2019-05-23T11:35:11.776Z,18.90
2019-05-23T11:37:42.073Z,19.00
2019-05-23T11:40:11.190Z,19.20
2019-05-23T11:42:39.724Z,19.20
2019-05-23T11:45:08.602Z,19.30
2019-05-23T11:47:37.708Z,19.30
2019-05-23T11:50:08.532Z,19.10
2019-05-23T11:52:37.604Z,18.90
2019-05-23T11:55:07.558Z,18.80
2019-05-23T11:57:37.724Z,18.80
2019-05-23T12:00:11.070Z,18.90
2019-05-23T12:02:44.125Z,19.00
2019-05-23T12:05:14.704Z,19.10
2019-05-23T12:07:43.246Z,19.00
2019-05-23T12:10:12.399Z,19.00
2019-05-23T12:12:40.850Z,19.00
2019-05-23T12:15:13.324Z,19.20
2019-05-23T12:17:42.877Z,19.30
2019-05-23T12:20:13.016Z,19.30
2019-05-23T12:22:42.124Z,19.40
2019-05-23T12:25:21.830Z,19.60
2019-05-23T12:27:43.177Z,19.70
2019-05-23T12:30:14.419Z,19.70
2019-05-23T12:32:42.937Z,19.60
2019-05-23T12:35:12.272Z,19.60
2019-05-23T12:37:41.113Z,19.60
2019-05-23T12:40:11.653Z,19.60
2019-05-23T12:42:40.176Z,19.50
2019-05-23T12:45:10.827Z,19.60
2019-05-23T12:47:46.923Z,19.70
2019-05-23T12:50:17.434Z,19.80
2019-05-23T12:52:45.892Z,19.90
2019-05-23T12:55:14.466Z,19.90
2019-05-23T12:57:43.219Z,19.80
2019-05-23T13:00:14.087Z,20.00
2019-05-23T13:02:42.527Z,20.00
2019-05-23T13:05:12.367Z,20.10
2019-05-23T13:07:40.798Z,20.10
2019-05-23T13:10:09.893Z,20.00
2019-05-23T13:12:38.867Z,20.10
2019-05-23T13:15:08.421Z,19.90
2019-05-23T13:17:37.115Z,19.80
2019-05-23T13:20:08.093Z,19.80
2019-05-23T13:22:36.589Z,19.80
2019-05-23T13:25:08.439Z,19.90
2019-05-23T13:27:37.898Z,20.40
2019-05-23T13:30:07.942Z,20.60
2019-05-23T13:32:36.916Z,21.00
2019-05-23T13:35:07.253Z,21.20
2019-05-23T13:37:50.435Z,21.00
2019-05-23T13:40:07.175Z,21.10
2019-05-23T13:42:35.841Z,21.10
2019-05-23T13:45:06.717Z,21.30
2019-05-23T13:47:35.433Z,21.60
2019-05-23T13:50:06.100Z,22.20
2019-05-23T13:52:34.553Z,22.90
2019-05-23T13:55:04.597Z,23.30
2019-05-23T13:57:33.131Z,24.50
2019-05-23T14:00:01.672Z,25.60
2019-05-23T14:02:31.661Z,26.20
2019-05-23T14:05:00.434Z,27.10
2019-05-23T14:07:28.941Z,28.10
2019-05-23T14:09:57.471Z,29.40
2019-05-23T14:12:27.433Z,29.40
2019-05-23T14:14:55.888Z,29.00
2019-05-23T14:17:25.966Z,28.80
2019-05-23T14:19:54.462Z,28.80
2019-05-23T14:22:23.244Z,28.60
2019-05-23T14:24:51.914Z,29.30
2019-05-23T14:27:22.015Z,29.50
2019-05-23T14:29:50.462Z,29.80
2019-05-23T14:32:20.633Z,29.00
2019-05-23T14:34:49.066Z,28.70
2019-05-23T14:37:19.412Z,28.50
2019-05-23T14:39:48.414Z,27.80
2019-05-23T14:42:19.213Z,27.20
2019-05-23T14:44:48.078Z,27.40
2019-05-23T14:47:18.331Z,27.60
2019-05-23T14:49:48.495Z,27.90
2019-05-23T14:52:18.885Z,27.80
2019-05-23T14:54:49.225Z,27.50
2019-05-23T14:57:18.238Z,27.40
2019-05-23T14:59:46.770Z,27.40
2019-05-23T15:02:16.290Z,27.00
2019-05-23T15:04:44.740Z,27.00
2019-05-23T15:07:13.598Z,27.00
2019-05-23T15:09:42.061Z,26.60
2019-05-23T15:12:10.997Z,25.50
2019-05-23T15:14:40.182Z,24.80
2019-05-23T15:17:09.168Z,24.00
2019-05-23T15:19:44.196Z,23.20
2019-05-23T15:22:07.856Z,22.80
2019-05-23T15:24:36.566Z,22.60
2019-05-23T15:27:05.190Z,22.60
2019-05-23T15:29:33.878Z,22.50
2019-05-23T15:32:03.321Z,22.60
2019-05-23T15:34:34.931Z,22.20
2019-05-23T15:37:02.434Z,22.20
2019-05-23T15:39:31.301Z,22.00
2019-05-23T15:41:59.760Z,21.70
2019-05-23T15:44:29.934Z,21.40
2019-05-23T15:46:58.432Z,21.30
2019-05-23T15:49:27.363Z,21.10
2019-05-23T15:52:12.429Z,21.00
2019-05-23T15:54:41.744Z,20.90
2019-05-23T15:57:28.102Z,20.90
2019-05-23T16:00:01.418Z,20.90
2019-05-23T16:02:31.591Z,20.90
2019-05-23T16:05:00.777Z,20.80
2019-05-23T16:07:30.394Z,20.70
2019-05-23T16:09:58.937Z,20.70
2019-05-23T16:12:27.540Z,20.80
2019-05-23T16:14:56.121Z,20.60
2019-05-23T16:17:24.584Z,20.50
2019-05-23T16:19:53.349Z,20.40
2019-05-23T16:22:21.980Z,20.30
2019-05-23T16:24:50.414Z,20.20
2019-05-23T16:27:19.178Z,20.10
2019-05-23T16:29:47.676Z,19.90
2019-05-23T16:32:16.383Z,20.00
2019-05-23T16:34:44.901Z,19.90
2019-05-23T16:37:13.670Z,19.90
2019-05-23T16:39:47.851Z,19.90
2019-05-23T16:42:13.623Z,19.90
2019-05-23T16:44:42.237Z,19.90
2019-05-23T16:47:11.162Z,19.80
2019-05-23T16:49:39.669Z,19.80
2019-05-23T16:52:08.174Z,19.70
2019-05-23T16:54:38.637Z,19.60
2019-05-23T16:57:27.166Z,19.30
2019-05-23T16:59:57.344Z,19.20
2019-05-23T17:02:30.301Z,19.00
2019-05-23T17:05:10.462Z,19.00
2019-05-23T17:07:38.299Z,19.10
2019-05-23T17:10:09.749Z,19.10
2019-05-23T17:12:46.149Z,19.00
2019-05-23T17:15:16.490Z,19.10
2019-05-23T17:18:01.215Z,18.90
2019-05-23T17:20:21.487Z,18.90
2019-05-23T17:22:54.610Z,18.90
2019-05-23T17:25:39.714Z,18.80
2019-05-23T17:28:09.107Z,18.80
2019-05-23T17:30:42.240Z,18.60
2019-05-23T17:33:11.084Z,18.50
2019-05-23T17:35:40.239Z,18.40
2019-05-23T17:38:08.829Z,18.40
2019-05-23T17:40:37.759Z,18.40
2019-05-23T17:43:06.263Z,18.40
2019-05-23T17:45:34.787Z,18.40
2019-05-23T17:48:03.666Z,18.40
2019-05-23T17:50:47.505Z,18.40
2019-05-23T17:53:16.246Z,18.30
2019-05-23T17:55:46.129Z,18.20
2019-05-23T17:58:16.115Z,18.20
2019-05-23T18:00:46.109Z,18.10
2019-05-23T18:03:15.158Z,18.00
2019-05-23T18:05:44.074Z,17.90
2019-05-23T18:08:12.790Z,17.90
2019-05-23T18:10:45.075Z,17.80
2019-05-23T18:13:12.487Z,17.70
2019-05-23T18:15:42.203Z,17.60
2019-05-23T18:18:11.092Z,17.50
2019-05-23T18:20:41.589Z,17.30
2019-05-23T18:23:11.084Z,17.20
2019-05-23T18:25:40.015Z,17.20
2019-05-23T18:28:09.671Z,17.10
2019-05-23T18:30:55.643Z,17.00
2019-05-23T18:33:25.537Z,16.90
2019-05-23T18:35:55.757Z,16.90
2019-05-23T18:38:24.698Z,16.90
2019-05-23T18:41:02.335Z,16.80
2019-05-23T18:43:24.988Z,16.70
2019-05-23T18:45:55.078Z,16.70
2019-05-23T18:48:24.933Z,16.70
2019-05-23T18:50:53.724Z,16.60
2019-05-23T18:53:22.663Z,16.50
2019-05-23T18:55:51.462Z,16.50
2019-05-23T18:58:20.483Z,16.40
2019-05-23T19:00:56.726Z,16.40
2019-05-23T19:03:25.216Z,16.40
2019-05-23T19:05:53.793Z,16.30
2019-05-23T19:08:23.435Z,16.20
2019-05-23T19:10:52.715Z,16.20
2019-05-23T19:13:21.240Z,16.10
2019-05-23T19:15:49.847Z,16.00
2019-05-23T19:18:19.073Z,15.90
2019-05-23T19:20:48.273Z,15.80
2019-05-23T19:23:17.000Z,15.80
2019-05-23T19:25:46.668Z,15.70
2019-05-23T19:28:15.664Z,15.70
2019-05-23T19:30:44.927Z,15.70
2019-05-23T19:33:13.941Z,15.60
2019-05-23T19:35:42.467Z,15.60
2019-05-23T19:38:12.349Z,15.50
2019-05-23T19:40:41.942Z,15.40
2019-05-23T19:43:10.470Z,15.30
2019-05-23T19:45:39.334Z,15.20
2019-05-23T19:48:08.014Z,15.00
2019-05-23T19:50:38.531Z,14.90
2019-05-23T19:53:07.338Z,14.90
2019-05-23T19:55:39.599Z,14.80
2019-05-23T19:58:08.024Z,14.50
2019-05-23T20:00:36.732Z,14.50
2019-05-23T20:03:05.721Z,14.40
2019-05-23T20:05:44.917Z,14.30
2019-05-23T20:08:13.563Z,14.30
2019-05-23T20:10:42.080Z,14.20
2019-05-23T20:13:10.522Z,14.10
2019-05-23T20:15:39.389Z,14.00
2019-05-23T20:18:08.465Z,13.90
2019-05-23T20:20:39.190Z,13.90
2019-05-23T20:23:09.653Z,13.80
2019-05-23T20:25:38.688Z,13.90
2019-05-23T20:28:07.497Z,13.80
2019-05-23T20:30:47.759Z,13.70
2019-05-23T20:33:16.304Z,13.80
2019-05-23T20:35:44.862Z,13.70
2019-05-23T20:38:13.656Z,13.70
2019-05-23T20:40:42.265Z,13.60
2019-05-23T20:43:11.280Z,13.60
2019-05-23T20:45:40.258Z,13.40
2019-05-23T20:48:09.363Z,13.40
2019-05-23T20:50:38.244Z,13.20
2019-05-23T20:53:06.834Z,13.20
2019-05-23T20:55:35.636Z,13.00
2019-05-23T20:58:05.371Z,12.90
2019-05-23T21:00:36.066Z,12.90
2019-05-23T21:03:05.728Z,13.00
2019-05-23T21:05:34.798Z,13.10
2019-05-23T21:08:03.875Z,13.10
2019-05-23T21:10:44.334Z,13.10
2019-05-23T21:13:12.939Z,13.00
2019-05-23T21:15:41.720Z,13.00
2019-05-23T21:18:10.170Z,12.90
2019-05-23T21:20:39.148Z,12.80
2019-05-23T21:23:07.725Z,12.80
2019-05-23T21:25:38.200Z,12.80
2019-05-23T21:28:06.636Z,12.80
2019-05-23T21:30:35.229Z,12.90
2019-05-23T21:33:04.378Z,12.80
2019-05-23T21:35:33.346Z,12.70
2019-05-23T21:38:01.783Z,12.70
2019-05-23T21:40:33.392Z,12.70
2019-05-23T21:43:02.164Z,12.70
2019-05-23T21:45:30.660Z,12.80
2019-05-23T21:47:59.434Z,12.80
2019-05-23T21:50:28.317Z,12.80
2019-05-23T21:52:56.913Z,12.70
2019-05-23T21:55:40.539Z,12.60
2019-05-23T21:58:11.145Z,12.50
2019-05-23T22:01:08.375Z,12.60
2019-05-23T22:03:43.104Z,12.50
2019-05-23T22:06:14.416Z,12.50
2019-05-23T22:08:44.421Z,12.50
2019-05-23T22:11:13.332Z,12.40
2019-05-23T22:13:41.833Z,12.40
2019-05-23T22:16:10.497Z,12.30
2019-05-23T22:18:39.266Z,12.30
2019-05-23T22:21:08.050Z,12.30
2019-05-23T22:23:37.708Z,12.40
2019-05-23T22:26:07.062Z,12.30
2019-05-23T22:28:35.850Z,12.20
2019-05-23T22:31:04.282Z,12.20
2019-05-23T22:33:34.971Z,12.00
2019-05-23T22:36:03.419Z,12.00
2019-05-23T22:38:32.126Z,12.00
2019-05-23T22:41:00.578Z,12.00
2019-05-23T22:43:29.022Z,12.00
2019-05-23T22:45:57.512Z,12.00
2019-05-23T22:48:26.254Z,11.90
2019-05-23T22:50:55.042Z,12.00
2019-05-23T22:53:23.722Z,12.00
2019-05-23T22:55:52.537Z,12.00
2019-05-23T22:58:21.048Z,12.00
2019-05-23T23:00:50.508Z,12.00
2019-05-23T23:03:18.987Z,12.00
2019-05-23T23:05:47.416Z,12.00
2019-05-23T23:08:16.729Z,12.00
2019-05-23T23:10:45.227Z,12.00
2019-05-23T23:13:14.314Z,12.00
2019-05-23T23:15:43.250Z,11.80
2019-05-23T23:18:12.128Z,11.90
2019-05-23T23:20:40.926Z,12.00
2019-05-23T23:23:09.420Z,12.00
2019-05-23T23:25:37.880Z,12.00
2019-05-23T23:28:06.390Z,11.90
2019-05-23T23:30:43.039Z,11.90
2019-05-23T23:33:11.478Z,11.80
2019-05-23T23:35:40.209Z,11.50
2019-05-23T23:38:08.918Z,11.20
2019-05-23T23:40:37.675Z,11.10
2019-05-23T23:43:06.493Z,11.20
2019-05-23T23:45:52.849Z,11.30
2019-05-23T23:48:39.306Z,11.40
2019-05-23T23:51:25.607Z,11.50
2019-05-23T23:54:12.224Z,11.40
2019-05-23T23:56:58.583Z,11.50
2019-05-23T23:59:26.326Z,11.50
